BON48Y VHHH-VIDP
Flight info
| Callsign | BON48Y |
|---|---|
| Flight time | N/A |
| Altitude | 38000 |
| Route | PECAN V10 SIKOU/K0900S1160 R339 BSE A599 MEPAN/K0896S1220 A599 LXI W148 XSJ W146 GULOT A599 LINSO/N0484F400 A599 LSO A201 RAJ G463 TEBID A201 BIKIK G463 MONDA A201 PPT J71 KEVOD Z2 JAL JAL6G |
| Aircraft | B77L/H-SDE1E2E3FGHIJ2J3J4J5M1RWXY/LB1D1 |
Departure
| Time | 2026-05-05 14:20 |
|---|---|
| Airport | Hong Kong International Airport (VHHH) |
Arrival
| Time | N/A |
|---|---|
| Airport | Indira Gandhi International Airport (VIDP) |
| Time | Latitude | Longitude | Altitude | Speed | Heading |
|---|---|---|---|---|---|
| 2026-05-05 14:03 | 22.31071 | 113.92556 | 37 ft | 0 kts | 115° |
| 2026-05-05 14:09 | 22.31075 | 113.92546 | 35 ft | 4 kts | 115° |
| 2026-05-05 14:09 | 22.31083 | 113.92529 | 33 ft | 4 kts | 115° |
| 2026-05-05 14:10 | 22.31093 | 113.92507 | 34 ft | 4 kts | 115° |
| 2026-05-05 14:10 | 22.31102 | 113.92486 | 36 ft | 4 kts | 134° |
| 2026-05-05 14:10 | 22.31122 | 113.92478 | 34 ft | 4 kts | 201° |
| 2026-05-05 14:11 | 22.31145 | 113.92489 | 33 ft | 4 kts | 206° |
| 2026-05-05 14:11 | 22.31155 | 113.92495 | 33 ft | 0 kts | 206° |
| 2026-05-05 14:12 | 22.31148 | 113.92491 | 33 ft | 2 kts | 206° |
| 2026-05-05 14:13 | 22.31111 | 113.92471 | 37 ft | 14 kts | 206° |
| 2026-05-05 14:13 | 22.30994 | 113.92411 | 37 ft | 19 kts | 205° |
| 2026-05-05 14:13 | 22.30875 | 113.92349 | 37 ft | 19 kts | 206° |
| 2026-05-05 14:13 | 22.30752 | 113.92350 | 37 ft | 19 kts | 160° |
| 2026-05-05 14:14 | 22.30647 | 113.92384 | 36 ft | 14 kts | 166° |
| 2026-05-05 14:14 | 22.30616 | 113.92358 | 36 ft | 7 kts | 257° |
| 2026-05-05 14:14 | 22.30593 | 113.92254 | 37 ft | 22 kts | 252° |
| 2026-05-05 14:14 | 22.30542 | 113.92091 | 37 ft | 23 kts | 251° |
| 2026-05-05 14:15 | 22.30490 | 113.91929 | 37 ft | 23 kts | 251° |
| 2026-05-05 14:15 | 22.30437 | 113.91765 | 37 ft | 23 kts | 250° |
| 2026-05-05 14:15 | 22.30384 | 113.91604 | 37 ft | 23 kts | 250° |
| 2026-05-05 14:15 | 22.30330 | 113.91441 | 37 ft | 23 kts | 251° |
| 2026-05-05 14:16 | 22.30278 | 113.91280 | 37 ft | 23 kts | 251° |
| 2026-05-05 14:16 | 22.30225 | 113.91118 | 37 ft | 23 kts | 250° |
| 2026-05-05 14:16 | 22.30172 | 113.90955 | 37 ft | 23 kts | 251° |
| 2026-05-05 14:16 | 22.30120 | 113.90792 | 37 ft | 23 kts | 251° |
| 2026-05-05 14:17 | 22.30069 | 113.90631 | 37 ft | 23 kts | 251° |
| 2026-05-05 14:17 | 22.30012 | 113.90452 | 36 ft | 31 kts | 250° |
| 2026-05-05 14:17 | 22.29944 | 113.90242 | 37 ft | 27 kts | 251° |
| 2026-05-05 14:17 | 22.29882 | 113.90048 | 37 ft | 27 kts | 251° |
| 2026-05-05 14:18 | 22.29820 | 113.89855 | 37 ft | 22 kts | 251° |
| 2026-05-05 14:18 | 22.29760 | 113.89768 | 37 ft | 12 kts | 183° |
| 2026-05-05 14:18 | 22.29673 | 113.89791 | 34 ft | 15 kts | 159° |
| 2026-05-05 14:18 | 22.29641 | 113.89862 | 34 ft | 12 kts | 76° |
| 2026-05-05 14:19 | 22.29645 | 113.89876 | 32 ft | 0 kts | 72° |
| 2026-05-05 14:20 | 22.29719 | 113.90114 | 35 ft | 74 kts | 71° |
| 2026-05-05 14:20 | 22.29978 | 113.90915 | 36 ft | 148 kts | 72° |
| 2026-05-05 14:20 | 22.30334 | 113.92083 | 415 ft | 170 kts | 72° |
| 2026-05-05 14:20 | 22.30731 | 113.93308 | 1224 ft | 173 kts | 72° |
| 2026-05-05 14:21 | 22.31133 | 113.94524 | 2146 ft | 170 kts | 73° |
| 2026-05-05 14:21 | 22.31553 | 113.95805 | 2680 ft | 195 kts | 73° |
| 2026-05-05 14:21 | 22.32019 | 113.97241 | 3285 ft | 209 kts | 73° |
| 2026-05-05 14:21 | 22.32501 | 113.98769 | 3899 ft | 220 kts | 72° |
| 2026-05-05 14:22 | 22.33005 | 114.00355 | 4651 ft | 226 kts | 72° |
| 2026-05-05 14:22 | 22.33525 | 114.01973 | 5009 ft | 232 kts | 72° |
| 2026-05-05 14:22 | 22.33834 | 114.03754 | 5209 ft | 256 kts | 94° |
| 2026-05-05 14:22 | 22.33426 | 114.05690 | 5709 ft | 272 kts | 117° |
| 2026-05-05 14:23 | 22.32338 | 114.07340 | 6535 ft | 277 kts | 140° |
| 2026-05-05 14:23 | 22.30659 | 114.08381 | 7442 ft | 276 kts | 166° |
| 2026-05-05 14:23 | 22.28787 | 114.08561 | 8311 ft | 274 kts | 185° |
| 2026-05-05 14:23 | 22.26848 | 114.08482 | 9073 ft | 284 kts | 182° |
| 2026-05-05 14:24 | 22.24858 | 114.08491 | 9999 ft | 287 kts | 181° |
| 2026-05-05 14:24 | 22.22837 | 114.08518 | 10703 ft | 300 kts | 182° |
| 2026-05-05 14:24 | 22.20657 | 114.08544 | 10963 ft | 330 kts | 182° |
| 2026-05-05 14:24 | 22.18249 | 114.08572 | 11179 ft | 361 kts | 182° |
| 2026-05-05 14:25 | 22.15672 | 114.08598 | 11727 ft | 377 kts | 183° |
| 2026-05-05 14:25 | 22.13021 | 114.08493 | 12589 ft | 385 kts | 186° |
| 2026-05-05 14:25 | 22.10337 | 114.08282 | 13616 ft | 389 kts | 188° |
| 2026-05-05 14:25 | 22.07625 | 114.08044 | 14509 ft | 393 kts | 188° |
| 2026-05-05 14:26 | 22.04872 | 114.07806 | 15293 ft | 401 kts | 188° |
| 2026-05-05 14:26 | 22.02066 | 114.07575 | 16051 ft | 408 kts | 188° |
| 2026-05-05 14:26 | 21.99213 | 114.07352 | 16824 ft | 415 kts | 188° |
| 2026-05-05 14:26 | 21.96328 | 114.07134 | 17585 ft | 421 kts | 188° |
| 2026-05-05 14:27 | 21.93397 | 114.06916 | 18320 ft | 427 kts | 188° |
| 2026-05-05 14:27 | 21.90412 | 114.06695 | 18945 ft | 433 kts | 188° |
| 2026-05-05 14:27 | 21.87398 | 114.06473 | 19647 ft | 435 kts | 188° |
| 2026-05-05 14:27 | 21.84377 | 114.06253 | 20498 ft | 435 kts | 188° |
| 2026-05-05 14:28 | 21.81345 | 114.06024 | 21166 ft | 436 kts | 189° |
| 2026-05-05 14:28 | 21.78421 | 114.05287 | 21521 ft | 433 kts | 208° |
| 2026-05-05 14:28 | 21.75982 | 114.03438 | 22036 ft | 429 kts | 230° |
| 2026-05-05 14:28 | 21.74823 | 114.01736 | 22499 ft | 426 kts | 244° |
| 2026-05-05 14:29 | 21.73721 | 113.98808 | 23133 ft | 421 kts | 251° |
| 2026-05-05 14:29 | 21.71982 | 113.94970 | 23703 ft | 435 kts | 238° |
| 2026-05-05 14:29 | 21.70770 | 113.93245 | 24030 ft | 439 kts | 233° |
| 2026-05-05 14:29 | 21.68040 | 113.90005 | 24793 ft | 443 kts | 230° |
| 2026-05-05 14:30 | 21.65945 | 113.87574 | 25315 ft | 444 kts | 232° |
| 2026-05-05 14:30 | 21.64639 | 113.85823 | 25647 ft | 444 kts | 237° |
| 2026-05-05 14:30 | 21.62328 | 113.82179 | 26282 ft | 447 kts | 239° |
| 2026-05-05 14:30 | 21.61159 | 113.80297 | 26599 ft | 450 kts | 239° |
| 2026-05-05 14:31 | 21.59410 | 113.77491 | 27061 ft | 454 kts | 239° |
| 2026-05-05 14:31 | 21.57640 | 113.74671 | 27547 ft | 457 kts | 239° |
| 2026-05-05 14:31 | 21.55847 | 113.71837 | 28038 ft | 460 kts | 239° |
| 2026-05-05 14:31 | 21.54041 | 113.68994 | 28512 ft | 462 kts | 239° |
| 2026-05-05 14:32 | 21.52220 | 113.66133 | 28954 ft | 465 kts | 240° |
| 2026-05-05 14:32 | 21.50390 | 113.63260 | 29378 ft | 468 kts | 240° |
| 2026-05-05 14:32 | 21.48548 | 113.60371 | 29773 ft | 471 kts | 240° |
| 2026-05-05 14:32 | 21.46691 | 113.57458 | 30148 ft | 473 kts | 240° |
| 2026-05-05 14:33 | 21.44834 | 113.54546 | 30571 ft | 473 kts | 240° |
| 2026-05-05 14:33 | 21.42977 | 113.51636 | 31045 ft | 472 kts | 240° |
| 2026-05-05 14:33 | 21.41124 | 113.48738 | 31530 ft | 471 kts | 240° |
| 2026-05-05 14:33 | 21.39274 | 113.45844 | 31995 ft | 470 kts | 240° |
| 2026-05-05 14:34 | 21.37424 | 113.42951 | 32414 ft | 470 kts | 240° |
| 2026-05-05 14:34 | 21.35570 | 113.40052 | 32809 ft | 472 kts | 240° |
| 2026-05-05 14:34 | 21.33737 | 113.37185 | 33225 ft | 472 kts | 240° |
| 2026-05-05 14:34 | 21.31881 | 113.34285 | 33714 ft | 471 kts | 240° |
| 2026-05-05 14:35 | 21.30026 | 113.31389 | 34168 ft | 470 kts | 240° |
| 2026-05-05 14:35 | 21.28173 | 113.28499 | 34576 ft | 470 kts | 240° |
| 2026-05-05 14:35 | 21.26323 | 113.25612 | 34966 ft | 470 kts | 240° |
| 2026-05-05 14:35 | 21.24472 | 113.22726 | 35357 ft | 470 kts | 240° |
| 2026-05-05 14:36 | 21.22625 | 113.19849 | 35751 ft | 469 kts | 240° |
| 2026-05-05 14:36 | 21.20783 | 113.16980 | 36146 ft | 468 kts | 240° |
| 2026-05-05 14:36 | 21.18938 | 113.14107 | 36528 ft | 468 kts | 240° |
| 2026-05-05 14:36 | 21.17086 | 113.11225 | 36905 ft | 467 kts | 240° |
| 2026-05-05 14:37 | 21.15244 | 113.08360 | 37246 ft | 468 kts | 240° |
| 2026-05-05 14:37 | 21.13397 | 113.05490 | 37588 ft | 468 kts | 240° |
| 2026-05-05 14:37 | 21.11553 | 113.02624 | 37891 ft | 468 kts | 240° |
| 2026-05-05 14:37 | 21.09695 | 112.99737 | 37960 ft | 473 kts | 239° |
| 2026-05-05 14:38 | 21.05950 | 112.93924 | 37996 ft | 472 kts | 239° |
| 2026-05-05 14:38 | 21.02240 | 112.88181 | 37987 ft | 466 kts | 239° |
| 2026-05-05 14:39 | 20.98556 | 112.82478 | 37990 ft | 466 kts | 239° |
| 2026-05-05 14:39 | 20.94873 | 112.76778 | 37990 ft | 466 kts | 239° |
| 2026-05-05 14:40 | 20.91183 | 112.71075 | 37992 ft | 467 kts | 239° |
| 2026-05-05 14:40 | 20.87483 | 112.65361 | 37971 ft | 468 kts | 239° |
| 2026-05-05 14:41 | 20.83767 | 112.59631 | 37979 ft | 470 kts | 239° |
| 2026-05-05 14:41 | 20.80039 | 112.53886 | 37987 ft | 471 kts | 239° |
| 2026-05-05 14:42 | 20.76290 | 112.48117 | 37986 ft | 473 kts | 239° |
| 2026-05-05 14:42 | 20.72531 | 112.42337 | 37981 ft | 474 kts | 239° |
| 2026-05-05 14:43 | 20.68761 | 112.36545 | 37975 ft | 475 kts | 239° |
| 2026-05-05 14:43 | 20.64985 | 112.30752 | 37976 ft | 475 kts | 239° |
| 2026-05-05 14:44 | 20.61208 | 112.24960 | 37981 ft | 475 kts | 239° |
| 2026-05-05 14:44 | 20.57706 | 112.19094 | 37967 ft | 465 kts | 252° |
| 2026-05-05 14:45 | 20.56952 | 112.15785 | 37971 ft | 457 kts | 268° |
| 2026-05-05 14:45 | 20.56982 | 112.12415 | 37984 ft | 453 kts | 278° |
| 2026-05-05 14:45 | 20.57594 | 112.09137 | 37976 ft | 451 kts | 290° |
| 2026-05-05 14:45 | 20.58871 | 112.06103 | 37988 ft | 448 kts | 297° |
| 2026-05-05 14:46 | 20.61679 | 112.00144 | 37982 ft | 451 kts | 297° |
| 2026-05-05 14:46 | 20.64462 | 111.94132 | 37979 ft | 453 kts | 296° |
| 2026-05-05 14:47 | 20.67213 | 111.88063 | 37981 ft | 455 kts | 296° |
| 2026-05-05 14:47 | 20.69957 | 111.81965 | 37979 ft | 456 kts | 296° |
| 2026-05-05 14:48 | 20.72706 | 111.75850 | 37974 ft | 457 kts | 296° |
| 2026-05-05 14:48 | 20.75460 | 111.69722 | 37977 ft | 457 kts | 296° |
| 2026-05-05 14:49 | 20.78209 | 111.63598 | 37977 ft | 458 kts | 296° |
| 2026-05-05 14:49 | 20.80959 | 111.57465 | 37979 ft | 457 kts | 296° |
| 2026-05-05 14:50 | 20.83675 | 111.51322 | 37979 ft | 457 kts | 293° |
| 2026-05-05 14:50 | 20.85653 | 111.44879 | 37976 ft | 456 kts | 285° |
| 2026-05-05 14:51 | 20.87251 | 111.38312 | 37983 ft | 456 kts | 285° |
| 2026-05-05 14:51 | 20.88868 | 111.31755 | 37981 ft | 456 kts | 285° |
| 2026-05-05 14:52 | 20.90499 | 111.25208 | 37973 ft | 456 kts | 285° |
| 2026-05-05 14:52 | 20.92131 | 111.18662 | 37975 ft | 455 kts | 285° |
| 2026-05-05 14:53 | 20.93749 | 111.12157 | 37968 ft | 455 kts | 285° |
| 2026-05-05 14:53 | 20.95375 | 111.05606 | 37975 ft | 456 kts | 285° |
| 2026-05-05 14:54 | 20.97022 | 110.99054 | 37972 ft | 456 kts | 285° |
| 2026-05-05 14:54 | 20.98684 | 110.92496 | 37974 ft | 457 kts | 285° |
| 2026-05-05 14:55 | 21.00341 | 110.85934 | 37972 ft | 457 kts | 285° |
| 2026-05-05 14:55 | 21.01997 | 110.79357 | 37968 ft | 458 kts | 285° |
| 2026-05-05 14:56 | 21.03649 | 110.72777 | 37971 ft | 458 kts | 285° |
| 2026-05-05 14:56 | 21.05297 | 110.66201 | 37976 ft | 458 kts | 285° |
| 2026-05-05 14:57 | 21.06945 | 110.59615 | 37971 ft | 457 kts | 285° |
| 2026-05-05 14:57 | 21.08587 | 110.53041 | 37964 ft | 457 kts | 285° |
| 2026-05-05 14:58 | 21.10226 | 110.46467 | 37968 ft | 457 kts | 285° |
| 2026-05-05 14:58 | 21.11852 | 110.39936 | 37965 ft | 456 kts | 285° |
| 2026-05-05 14:59 | 21.13685 | 110.33443 | 37969 ft | 455 kts | 291° |
| 2026-05-05 14:59 | 21.16434 | 110.27347 | 37976 ft | 455 kts | 298° |
| 2026-05-05 15:00 | 21.18984 | 110.22373 | 37967 ft | 455 kts | 298° |
| 2026-05-05 15:00 | 21.22507 | 110.15462 | 37976 ft | 455 kts | 298° |
| 2026-05-05 15:01 | 21.25518 | 110.09500 | 37970 ft | 455 kts | 297° |
| 2026-05-05 15:01 | 21.28525 | 110.03526 | 37962 ft | 455 kts | 297° |
| 2026-05-05 15:02 | 21.31527 | 109.97553 | 37968 ft | 455 kts | 297° |
| 2026-05-05 15:02 | 21.34528 | 109.91578 | 37967 ft | 455 kts | 297° |
| 2026-05-05 15:03 | 21.37526 | 109.85602 | 37964 ft | 455 kts | 297° |
| 2026-05-05 15:03 | 21.40520 | 109.79628 | 37959 ft | 455 kts | 297° |
| 2026-05-05 15:04 | 21.43513 | 109.73649 | 37963 ft | 454 kts | 297° |
| 2026-05-05 15:04 | 21.46499 | 109.67677 | 37959 ft | 454 kts | 297° |
| 2026-05-05 15:05 | 21.50967 | 109.58728 | 37958 ft | 453 kts | 297° |
| 2026-05-05 15:06 | 21.53942 | 109.52760 | 37950 ft | 453 kts | 297° |
| 2026-05-05 15:06 | 21.56915 | 109.46792 | 37951 ft | 453 kts | 297° |
| 2026-05-05 15:07 | 21.60284 | 109.41079 | 37958 ft | 454 kts | 307° |
| 2026-05-05 15:07 | 21.64323 | 109.35918 | 37958 ft | 454 kts | 309° |
| 2026-05-05 15:08 | 21.68411 | 109.30728 | 37948 ft | 455 kts | 308° |
| 2026-05-05 15:08 | 21.72476 | 109.25515 | 37945 ft | 455 kts | 308° |
| 2026-05-05 15:09 | 21.76533 | 109.20290 | 37941 ft | 455 kts | 308° |
| 2026-05-05 15:09 | 21.80588 | 109.15063 | 37949 ft | 455 kts | 308° |
| 2026-05-05 15:10 | 21.84647 | 109.09830 | 37942 ft | 455 kts | 308° |
| 2026-05-05 15:10 | 21.88717 | 109.04617 | 37933 ft | 455 kts | 308° |
| 2026-05-05 15:11 | 21.92803 | 108.99409 | 37934 ft | 455 kts | 308° |
| 2026-05-05 15:11 | 21.96877 | 108.94205 | 37937 ft | 454 kts | 308° |
| 2026-05-05 15:12 | 22.00944 | 108.88998 | 37932 ft | 454 kts | 308° |
| 2026-05-05 15:12 | 22.05008 | 108.83789 | 37920 ft | 454 kts | 308° |
| 2026-05-05 15:13 | 22.09068 | 108.78582 | 37911 ft | 454 kts | 308° |
| 2026-05-05 15:13 | 22.13125 | 108.73377 | 37935 ft | 453 kts | 308° |
| 2026-05-05 15:14 | 22.17191 | 108.68187 | 37925 ft | 453 kts | 308° |
| 2026-05-05 15:14 | 22.21251 | 108.63001 | 37928 ft | 453 kts | 308° |
| 2026-05-05 15:15 | 22.25310 | 108.57809 | 37922 ft | 453 kts | 308° |
| 2026-05-05 15:15 | 22.29341 | 108.52645 | 37926 ft | 452 kts | 308° |
| 2026-05-05 15:16 | 22.33392 | 108.47449 | 37917 ft | 453 kts | 308° |
| 2026-05-05 15:16 | 22.37450 | 108.42240 | 37905 ft | 453 kts | 308° |
| 2026-05-05 15:17 | 22.41531 | 108.36995 | 37908 ft | 453 kts | 308° |
| 2026-05-05 15:17 | 22.45558 | 108.31815 | 37903 ft | 453 kts | 308° |
| 2026-05-05 15:18 | 22.49613 | 108.26594 | 37902 ft | 453 kts | 308° |
| 2026-05-05 15:18 | 22.53665 | 108.21371 | 37941 ft | 453 kts | 308° |
| 2026-05-05 15:19 | 22.57060 | 108.16991 | 37940 ft | 453 kts | 308° |
| 2026-05-05 15:19 | 22.61223 | 108.11923 | 37945 ft | 454 kts | 311° |
| 2026-05-05 15:20 | 22.65581 | 108.06979 | 37944 ft | 454 kts | 311° |
| 2026-05-05 15:20 | 22.69945 | 108.02035 | 37925 ft | 454 kts | 311° |
| 2026-05-05 15:21 | 22.74293 | 107.97073 | 37915 ft | 455 kts | 311° |
| 2026-05-05 15:21 | 22.78637 | 107.92095 | 37906 ft | 455 kts | 311° |
| 2026-05-05 15:22 | 22.82983 | 107.87109 | 37898 ft | 455 kts | 311° |
| 2026-05-05 15:22 | 22.87332 | 107.82117 | 37896 ft | 455 kts | 311° |
| 2026-05-05 15:23 | 22.91678 | 107.77123 | 37889 ft | 455 kts | 311° |
| 2026-05-05 15:23 | 22.96021 | 107.72126 | 37913 ft | 455 kts | 311° |
| 2026-05-05 15:24 | 23.00359 | 107.67131 | 37896 ft | 455 kts | 311° |
| 2026-05-05 15:24 | 23.04699 | 107.62131 | 37896 ft | 455 kts | 311° |
| 2026-05-05 15:25 | 23.09038 | 107.57136 | 37908 ft | 454 kts | 311° |
| 2026-05-05 15:25 | 23.13369 | 107.52142 | 37904 ft | 454 kts | 311° |
| 2026-05-05 15:26 | 23.17689 | 107.47156 | 37910 ft | 453 kts | 311° |
| 2026-05-05 15:26 | 23.22009 | 107.42163 | 37909 ft | 453 kts | 311° |
| 2026-05-05 15:27 | 23.26320 | 107.37175 | 37906 ft | 453 kts | 311° |
| 2026-05-05 15:27 | 23.30632 | 107.32182 | 37903 ft | 453 kts | 311° |
| 2026-05-05 15:28 | 23.34935 | 107.27194 | 37906 ft | 453 kts | 311° |
| 2026-05-05 15:28 | 23.39245 | 107.22193 | 37907 ft | 453 kts | 311° |
| 2026-05-05 15:29 | 23.43558 | 107.17183 | 37914 ft | 453 kts | 311° |
| 2026-05-05 15:29 | 23.47867 | 107.12173 | 37902 ft | 453 kts | 311° |
| 2026-05-05 15:30 | 23.52175 | 107.07158 | 37906 ft | 454 kts | 311° |
| 2026-05-05 15:30 | 23.56486 | 107.02135 | 37898 ft | 454 kts | 311° |
| 2026-05-05 15:31 | 23.60800 | 106.97104 | 37893 ft | 454 kts | 311° |
| 2026-05-05 15:31 | 23.65105 | 106.92079 | 37900 ft | 453 kts | 311° |
| 2026-05-05 15:32 | 23.69380 | 106.87081 | 37906 ft | 454 kts | 311° |
| 2026-05-05 15:32 | 23.73687 | 106.82041 | 37896 ft | 454 kts | 311° |
| 2026-05-05 15:33 | 23.77992 | 106.76999 | 37908 ft | 454 kts | 311° |
| 2026-05-05 15:33 | 23.82302 | 106.71945 | 37896 ft | 454 kts | 311° |
| 2026-05-05 15:34 | 23.86610 | 106.66890 | 37896 ft | 454 kts | 311° |
| 2026-05-05 15:34 | 23.90627 | 106.61605 | 37893 ft | 451 kts | 300° |
| 2026-05-05 15:35 | 23.93289 | 106.55421 | 37894 ft | 450 kts | 288° |
| 2026-05-05 15:35 | 23.94735 | 106.48774 | 37901 ft | 450 kts | 282° |
| 2026-05-05 15:36 | 23.96029 | 106.42084 | 37890 ft | 450 kts | 282° |
| 2026-05-05 15:36 | 23.97352 | 106.35398 | 37895 ft | 450 kts | 283° |
| 2026-05-05 15:37 | 23.98701 | 106.28708 | 37891 ft | 450 kts | 283° |
| 2026-05-05 15:37 | 24.00054 | 106.22024 | 37884 ft | 451 kts | 283° |
| 2026-05-05 15:38 | 24.01404 | 106.15335 | 37892 ft | 450 kts | 283° |
| 2026-05-05 15:38 | 24.02749 | 106.08648 | 37899 ft | 450 kts | 283° |
| 2026-05-05 15:39 | 24.04084 | 106.01995 | 37891 ft | 451 kts | 283° |
| 2026-05-05 15:39 | 24.05426 | 105.95290 | 37883 ft | 451 kts | 283° |
| 2026-05-05 15:40 | 24.06765 | 105.88584 | 37896 ft | 451 kts | 283° |
| 2026-05-05 15:40 | 24.08101 | 105.81881 | 37894 ft | 451 kts | 283° |
| 2026-05-05 15:41 | 24.09433 | 105.75177 | 37894 ft | 450 kts | 283° |
| 2026-05-05 15:41 | 24.10780 | 105.68478 | 37904 ft | 451 kts | 284° |
| 2026-05-05 15:42 | 24.12386 | 105.61847 | 37908 ft | 450 kts | 286° |
| 2026-05-05 15:42 | 24.14057 | 105.55240 | 37901 ft | 450 kts | 285° |
| 2026-05-05 15:43 | 24.15688 | 105.48628 | 37897 ft | 449 kts | 285° |
| 2026-05-05 15:43 | 24.17290 | 105.42025 | 37909 ft | 449 kts | 285° |
| 2026-05-05 15:44 | 24.18891 | 105.35407 | 37914 ft | 449 kts | 285° |
| 2026-05-05 15:44 | 24.20490 | 105.28793 | 37914 ft | 450 kts | 285° |
| 2026-05-05 15:45 | 24.22089 | 105.22166 | 37915 ft | 450 kts | 285° |
| 2026-05-05 15:45 | 24.23615 | 105.15516 | 37909 ft | 450 kts | 284° |
| 2026-05-05 15:46 | 24.25076 | 105.08842 | 37903 ft | 450 kts | 284° |
| 2026-05-05 15:46 | 24.26536 | 105.02175 | 37911 ft | 450 kts | 284° |
| 2026-05-05 15:47 | 24.28004 | 104.95505 | 37911 ft | 450 kts | 284° |
| 2026-05-05 15:47 | 24.29470 | 104.88845 | 37907 ft | 450 kts | 284° |
| 2026-05-05 15:48 | 24.30930 | 104.82211 | 37915 ft | 451 kts | 284° |
| 2026-05-05 15:48 | 24.32396 | 104.75532 | 37915 ft | 451 kts | 284° |
| 2026-05-05 15:49 | 24.33859 | 104.68851 | 37916 ft | 451 kts | 284° |
| 2026-05-05 15:49 | 24.35320 | 104.62154 | 37934 ft | 451 kts | 284° |
| 2026-05-05 15:50 | 24.36778 | 104.55460 | 37935 ft | 452 kts | 284° |
| 2026-05-05 15:50 | 24.38235 | 104.48756 | 37947 ft | 452 kts | 284° |
| 2026-05-05 15:51 | 24.39690 | 104.42055 | 37954 ft | 452 kts | 284° |
| 2026-05-05 15:51 | 24.41141 | 104.35346 | 37981 ft | 452 kts | 284° |
| 2026-05-05 15:52 | 24.42591 | 104.28632 | 37978 ft | 452 kts | 284° |
| 2026-05-05 15:52 | 24.44039 | 104.21910 | 37966 ft | 452 kts | 284° |
| 2026-05-05 15:53 | 24.45482 | 104.15201 | 37987 ft | 451 kts | 284° |
| 2026-05-05 15:53 | 24.46919 | 104.08494 | 37991 ft | 452 kts | 283° |
| 2026-05-05 15:54 | 24.48355 | 104.01782 | 38015 ft | 452 kts | 284° |
| 2026-05-05 15:54 | 24.49789 | 103.95067 | 38019 ft | 451 kts | 284° |
| 2026-05-05 15:55 | 24.51217 | 103.88362 | 38050 ft | 451 kts | 284° |
| 2026-05-05 15:55 | 24.52641 | 103.81662 | 38052 ft | 451 kts | 283° |
| 2026-05-05 15:56 | 24.53964 | 103.74928 | 38062 ft | 451 kts | 279° |
| 2026-05-05 15:56 | 24.54393 | 103.68061 | 38061 ft | 452 kts | 272° |
| 2026-05-05 15:57 | 24.54495 | 103.61152 | 38076 ft | 452 kts | 272° |
| 2026-05-05 15:57 | 24.54617 | 103.54252 | 38073 ft | 452 kts | 272° |
| 2026-05-05 15:58 | 24.54755 | 103.47358 | 38102 ft | 451 kts | 272° |
| 2026-05-05 15:58 | 24.54891 | 103.40465 | 38085 ft | 451 kts | 272° |
| 2026-05-05 15:59 | 24.55024 | 103.33591 | 38101 ft | 450 kts | 272° |
| 2026-05-05 15:59 | 24.55152 | 103.26767 | 38099 ft | 449 kts | 272° |
| 2026-05-05 16:00 | 24.55611 | 103.19941 | 38100 ft | 448 kts | 280° |
| 2026-05-05 16:00 | 24.57044 | 103.13296 | 38105 ft | 447 kts | 288° |
| 2026-05-05 16:01 | 24.59196 | 103.06896 | 38109 ft | 445 kts | 290° |
| 2026-05-05 16:01 | 24.61388 | 103.00539 | 38106 ft | 445 kts | 290° |
| 2026-05-05 16:02 | 24.63547 | 102.94160 | 38101 ft | 445 kts | 289° |
| 2026-05-05 16:02 | 24.65688 | 102.87788 | 38108 ft | 444 kts | 289° |
| 2026-05-05 16:03 | 24.67436 | 102.81286 | 38119 ft | 444 kts | 279° |
| 2026-05-05 16:03 | 24.68006 | 102.74530 | 38130 ft | 445 kts | 270° |
| 2026-05-05 16:04 | 24.67610 | 102.67750 | 38116 ft | 445 kts | 266° |
| 2026-05-05 16:04 | 24.67149 | 102.60962 | 38117 ft | 445 kts | 267° |
| 2026-05-05 16:05 | 24.66756 | 102.54182 | 38114 ft | 444 kts | 268° |
| 2026-05-05 16:05 | 24.66513 | 102.48545 | 38117 ft | 444 kts | 269° |
| 2026-05-05 16:06 | 24.66195 | 102.40616 | 38104 ft | 444 kts | 268° |
| 2026-05-05 16:06 | 24.65956 | 102.34982 | 38110 ft | 444 kts | 268° |
| 2026-05-05 16:07 | 24.65657 | 102.28215 | 38090 ft | 443 kts | 268° |
| 2026-05-05 16:07 | 24.65355 | 102.21449 | 38102 ft | 443 kts | 268° |
| 2026-05-05 16:08 | 24.65051 | 102.14686 | 38078 ft | 443 kts | 268° |
| 2026-05-05 16:08 | 24.64742 | 102.07927 | 38076 ft | 443 kts | 268° |
| 2026-05-05 16:09 | 24.64433 | 102.01166 | 38055 ft | 444 kts | 268° |
| 2026-05-05 16:09 | 24.64120 | 101.94393 | 38047 ft | 444 kts | 268° |
| 2026-05-05 16:10 | 24.63801 | 101.87624 | 38050 ft | 443 kts | 268° |
| 2026-05-05 16:10 | 24.63480 | 101.80855 | 38048 ft | 444 kts | 268° |
| 2026-05-05 16:11 | 24.63157 | 101.74072 | 38038 ft | 445 kts | 268° |
| 2026-05-05 16:12 | 24.62409 | 101.60500 | 38032 ft | 446 kts | 262° |
| 2026-05-05 16:13 | 24.56621 | 101.44692 | 38015 ft | 451 kts | 244° |
| 2026-05-05 16:13 | 24.53603 | 101.38703 | 38005 ft | 451 kts | 244° |
| 2026-05-05 16:14 | 24.47602 | 101.26631 | 38031 ft | 451 kts | 244° |
| 2026-05-05 16:15 | 24.41582 | 101.14478 | 38030 ft | 454 kts | 244° |
| 2026-05-05 16:16 | 24.35531 | 101.02292 | 38031 ft | 455 kts | 244° |
| 2026-05-05 16:17 | 24.30986 | 100.93161 | 38028 ft | 454 kts | 244° |
| 2026-05-05 16:18 | 24.26444 | 100.84054 | 38008 ft | 453 kts | 244° |
| 2026-05-05 16:19 | 24.21906 | 100.74974 | 38018 ft | 453 kts | 244° |
| 2026-05-05 16:19 | 24.17379 | 100.65930 | 38009 ft | 454 kts | 244° |
| 2026-05-05 16:20 | 24.11278 | 100.53775 | 37995 ft | 457 kts | 244° |
| 2026-05-05 16:22 | 24.03490 | 100.38605 | 37988 ft | 457 kts | 243° |
| 2026-05-05 16:23 | 23.97263 | 100.26487 | 37977 ft | 457 kts | 243° |
| 2026-05-05 16:23 | 23.92586 | 100.17406 | 37986 ft | 457 kts | 243° |
| 2026-05-05 16:24 | 23.89465 | 100.11354 | 37977 ft | 457 kts | 243° |
| 2026-05-05 16:25 | 23.84799 | 100.02319 | 37966 ft | 455 kts | 243° |
| 2026-05-05 16:25 | 23.80124 | 99.93286 | 37976 ft | 456 kts | 243° |
| 2026-05-05 16:26 | 23.73920 | 99.81313 | 38008 ft | 453 kts | 243° |
| 2026-05-05 16:27 | 23.70796 | 99.75307 | 37994 ft | 456 kts | 243° |
| 2026-05-05 16:27 | 23.67657 | 99.69274 | 37983 ft | 458 kts | 243° |
| 2026-05-05 16:28 | 23.64506 | 99.63220 | 37992 ft | 460 kts | 243° |
| 2026-05-05 16:28 | 23.61321 | 99.57112 | 37990 ft | 461 kts | 243° |
| 2026-05-05 16:29 | 23.58171 | 99.51076 | 37987 ft | 461 kts | 243° |
| 2026-05-05 16:29 | 23.54996 | 99.45000 | 37981 ft | 461 kts | 242° |
| 2026-05-05 16:30 | 23.52132 | 99.38787 | 37978 ft | 457 kts | 250° |
| 2026-05-05 16:30 | 23.50100 | 99.32246 | 37978 ft | 456 kts | 253° |
| 2026-05-05 16:31 | 23.48105 | 99.25706 | 37984 ft | 454 kts | 253° |
| 2026-05-05 16:31 | 23.46083 | 99.19175 | 37975 ft | 455 kts | 252° |
| 2026-05-05 16:32 | 23.44047 | 99.12644 | 37970 ft | 457 kts | 252° |
| 2026-05-05 16:32 | 23.42000 | 99.06088 | 37971 ft | 457 kts | 252° |
| 2026-05-05 16:33 | 23.39954 | 98.99540 | 37972 ft | 456 kts | 252° |
| 2026-05-05 16:33 | 23.37908 | 98.93004 | 37970 ft | 456 kts | 252° |
| 2026-05-05 16:34 | 23.35797 | 98.86487 | 37964 ft | 456 kts | 251° |
| 2026-05-05 16:34 | 23.33606 | 98.80002 | 37961 ft | 456 kts | 251° |
| 2026-05-05 16:35 | 23.31413 | 98.73518 | 37941 ft | 457 kts | 251° |
| 2026-05-05 16:35 | 23.29253 | 98.67107 | 37959 ft | 455 kts | 251° |
| 2026-05-05 16:36 | 23.27077 | 98.60639 | 37962 ft | 455 kts | 251° |
| 2026-05-05 16:36 | 23.24907 | 98.54193 | 37934 ft | 454 kts | 251° |
| 2026-05-05 16:37 | 23.22737 | 98.47757 | 37958 ft | 454 kts | 251° |
| 2026-05-05 16:37 | 23.20558 | 98.41311 | 37950 ft | 454 kts | 251° |
| 2026-05-05 16:38 | 23.18375 | 98.34860 | 37952 ft | 455 kts | 251° |
| 2026-05-05 16:38 | 23.16192 | 98.28418 | 37953 ft | 455 kts | 251° |
| 2026-05-05 16:39 | 23.13996 | 98.21947 | 37959 ft | 456 kts | 251° |
| 2026-05-05 16:39 | 23.11795 | 98.15472 | 37952 ft | 457 kts | 251° |
| 2026-05-05 16:40 | 23.09593 | 98.09005 | 37951 ft | 457 kts | 251° |
| 2026-05-05 16:40 | 23.07390 | 98.02545 | 37942 ft | 457 kts | 251° |
| 2026-05-05 16:41 | 23.05178 | 97.96066 | 37941 ft | 457 kts | 251° |
| 2026-05-05 16:41 | 23.02969 | 97.89608 | 37938 ft | 456 kts | 250° |
| 2026-05-05 16:42 | 23.00762 | 97.83161 | 37927 ft | 455 kts | 250° |
| 2026-05-05 16:42 | 22.99017 | 97.76601 | 37923 ft | 453 kts | 262° |
| 2026-05-05 16:43 | 22.98719 | 97.69823 | 37931 ft | 452 kts | 274° |
| 2026-05-05 16:43 | 22.99498 | 97.63142 | 37926 ft | 453 kts | 277° |
| 2026-05-05 16:44 | 23.00387 | 97.56390 | 37905 ft | 454 kts | 277° |
| 2026-05-05 16:44 | 23.01249 | 97.49630 | 37937 ft | 452 kts | 276° |
| 2026-05-05 16:45 | 23.02081 | 97.42879 | 37938 ft | 452 kts | 276° |
| 2026-05-05 16:45 | 23.02895 | 97.36152 | 37941 ft | 451 kts | 276° |
| 2026-05-05 16:46 | 23.03710 | 97.29389 | 37937 ft | 451 kts | 276° |
| 2026-05-05 16:46 | 23.04522 | 97.22637 | 37938 ft | 451 kts | 276° |
| 2026-05-05 16:47 | 23.05325 | 97.15931 | 37942 ft | 451 kts | 276° |
| 2026-05-05 16:47 | 23.06131 | 97.09187 | 37956 ft | 452 kts | 276° |
| 2026-05-05 16:48 | 23.06936 | 97.02419 | 37957 ft | 452 kts | 276° |
| 2026-05-05 16:48 | 23.07737 | 96.95655 | 37942 ft | 452 kts | 276° |
| 2026-05-05 16:49 | 23.08538 | 96.88880 | 37940 ft | 452 kts | 276° |
| 2026-05-05 16:49 | 23.09334 | 96.82109 | 37925 ft | 452 kts | 276° |
| 2026-05-05 16:50 | 23.10127 | 96.75350 | 37923 ft | 450 kts | 276° |
| 2026-05-05 16:50 | 23.10914 | 96.68611 | 37901 ft | 449 kts | 276° |
| 2026-05-05 16:51 | 23.11696 | 96.61883 | 37887 ft | 448 kts | 276° |
| 2026-05-05 16:51 | 23.12475 | 96.55161 | 37887 ft | 448 kts | 276° |
| 2026-05-05 16:52 | 23.13249 | 96.48456 | 37889 ft | 447 kts | 276° |
| 2026-05-05 16:52 | 23.14021 | 96.41749 | 37870 ft | 447 kts | 276° |
| 2026-05-05 16:53 | 23.14790 | 96.35040 | 37860 ft | 448 kts | 276° |
| 2026-05-05 16:53 | 23.15427 | 96.29460 | 37880 ft | 448 kts | 276° |
| 2026-05-05 16:54 | 23.16192 | 96.22732 | 37851 ft | 449 kts | 276° |
| 2026-05-05 16:54 | 23.16955 | 96.16001 | 37851 ft | 449 kts | 276° |
| 2026-05-05 16:55 | 23.17715 | 96.09270 | 37863 ft | 450 kts | 276° |
| 2026-05-05 16:55 | 23.18475 | 96.02517 | 37849 ft | 450 kts | 276° |
| 2026-05-05 16:56 | 23.19221 | 95.95857 | 37850 ft | 450 kts | 276° |
| 2026-05-05 16:56 | 23.19976 | 95.89092 | 37835 ft | 451 kts | 276° |
| 2026-05-05 16:57 | 23.20726 | 95.82346 | 37835 ft | 451 kts | 276° |
| 2026-05-05 16:57 | 23.21473 | 95.75599 | 37836 ft | 451 kts | 276° |
| 2026-05-05 16:58 | 23.22219 | 95.68834 | 37865 ft | 452 kts | 275° |
| 2026-05-05 16:58 | 23.22595 | 95.65418 | 38060 ft | 456 kts | 275° |
| 2026-05-05 16:58 | 23.22970 | 95.62001 | 38453 ft | 454 kts | 276° |
| 2026-05-05 16:59 | 23.23342 | 95.58599 | 38856 ft | 452 kts | 276° |
| 2026-05-05 16:59 | 23.23712 | 95.55216 | 39245 ft | 450 kts | 275° |
| 2026-05-05 16:59 | 23.24079 | 95.51850 | 39620 ft | 448 kts | 275° |
| 2026-05-05 16:59 | 23.24446 | 95.48484 | 39866 ft | 449 kts | 275° |
| 2026-05-05 17:00 | 23.25182 | 95.41698 | 39835 ft | 452 kts | 275° |
| 2026-05-05 17:00 | 23.25912 | 95.34947 | 39829 ft | 447 kts | 275° |
| 2026-05-05 17:01 | 23.26632 | 95.28263 | 39846 ft | 443 kts | 275° |
| 2026-05-05 17:01 | 23.27343 | 95.21625 | 39835 ft | 441 kts | 275° |
| 2026-05-05 17:02 | 23.28049 | 95.15015 | 39850 ft | 440 kts | 275° |
| 2026-05-05 17:02 | 23.28751 | 95.08409 | 39850 ft | 440 kts | 275° |
| 2026-05-05 17:03 | 23.29451 | 95.01793 | 39854 ft | 441 kts | 275° |
| 2026-05-05 17:03 | 23.30151 | 94.95154 | 39858 ft | 442 kts | 275° |
| 2026-05-05 17:04 | 23.30850 | 94.88502 | 39858 ft | 443 kts | 275° |
| 2026-05-05 17:04 | 23.31548 | 94.81832 | 39856 ft | 444 kts | 275° |
| 2026-05-05 17:05 | 23.32239 | 94.75198 | 39855 ft | 445 kts | 275° |
| 2026-05-05 17:05 | 23.32934 | 94.68503 | 39854 ft | 445 kts | 275° |
| 2026-05-05 17:06 | 23.33626 | 94.61805 | 39856 ft | 445 kts | 275° |
| 2026-05-05 17:06 | 23.34315 | 94.55110 | 39867 ft | 445 kts | 275° |
| 2026-05-05 17:07 | 23.35001 | 94.48417 | 39854 ft | 445 kts | 275° |
| 2026-05-05 17:07 | 23.35682 | 94.41740 | 39848 ft | 443 kts | 275° |
| 2026-05-05 17:08 | 23.36358 | 94.35083 | 39855 ft | 442 kts | 275° |
| 2026-05-05 17:08 | 23.37030 | 94.28446 | 39860 ft | 440 kts | 275° |
| 2026-05-05 17:09 | 23.37696 | 94.21821 | 39882 ft | 440 kts | 275° |
| 2026-05-05 17:09 | 23.38359 | 94.15216 | 39876 ft | 439 kts | 275° |